createdAt,value
2023-02-01T00:01:39.914Z,101015.47
2023-02-01T00:04:10.881Z,101033.78
2023-02-01T00:06:42.038Z,101008.06
2023-02-01T00:09:13.245Z,101003.16
2023-02-01T00:11:44.269Z,101019.59
2023-02-01T00:14:15.986Z,101013.84
2023-02-01T00:16:46.368Z,101027.84
2023-02-01T00:19:18.785Z,100994.44
2023-02-01T00:21:50.265Z,100980.47
2023-02-01T00:24:21.284Z,100986.09
2023-02-01T00:26:52.139Z,100984.63
2023-02-01T00:29:24.381Z,100970.69
2023-02-01T00:31:55.831Z,100991.50
2023-02-01T00:34:27.312Z,100987.47
2023-02-01T00:36:58.749Z,100995.41
2023-02-01T00:39:29.706Z,100994.75
2023-02-01T00:42:00.666Z,101000.78
2023-02-01T00:44:35.608Z,100999.13
2023-02-01T00:47:06.553Z,100996.22
2023-02-01T00:49:37.835Z,101008.56
2023-02-01T00:52:08.649Z,101003.84
2023-02-01T00:54:40.258Z,100997.31
2023-02-01T00:57:11.508Z,101001.09
2023-02-01T00:59:42.874Z,100987.03
2023-02-01T01:02:16.648Z,101003.00
2023-02-01T01:04:47.991Z,100994.03
2023-02-01T01:07:19.145Z,100996.69
2023-02-01T01:09:50.245Z,100990.34
2023-02-01T01:12:22.259Z,100985.72
2023-02-01T01:14:52.670Z,100982.53
2023-02-01T01:17:23.904Z,100965.50
2023-02-01T01:19:54.950Z,100974.63
2023-02-01T01:22:26.459Z,100965.78
2023-02-01T01:24:57.878Z,100971.78
2023-02-01T01:27:29.328Z,100959.31
2023-02-01T01:30:00.730Z,100966.25
2023-02-01T01:32:34.024Z,100967.59
2023-02-01T01:35:06.138Z,100967.97
2023-02-01T01:37:39.042Z,100974.91
2023-02-01T01:40:10.196Z,100966.91
2023-02-01T01:42:47.021Z,100969.59
2023-02-01T01:45:47.534Z,100970.72
2023-02-01T01:48:18.710Z,100967.19
2023-02-01T01:51:00.957Z,100960.13
2023-02-01T01:53:37.026Z,100956.94
2023-02-01T01:56:08.375Z,100937.59
2023-02-01T01:58:40.369Z,100941.59
2023-02-01T02:01:11.495Z,100940.50
2023-02-01T02:03:43.790Z,100949.19
2023-02-01T02:06:26.621Z,100935.69
2023-02-01T02:08:57.737Z,100953.53
2023-02-01T02:11:28.898Z,100984.31
2023-02-01T02:14:01.173Z,100970.28
2023-02-01T02:16:41.766Z,100971.91
2023-02-01T02:19:27.599Z,100960.13
2023-02-01T02:22:19.501Z,100949.03
2023-02-01T02:25:19.758Z,100939.63
2023-02-01T02:28:11.398Z,100934.91
2023-02-01T02:31:08.211Z,100941.47
2023-02-01T02:33:50.849Z,100938.09
2023-02-01T02:36:28.169Z,100926.78
2023-02-01T02:39:08.161Z,100904.78
2023-02-01T02:42:36.231Z,100895.28
2023-02-01T02:45:29.780Z,100898.06
2023-02-01T02:48:22.025Z,100896.50
2023-02-01T02:51:27.446Z,100883.09
2023-02-01T02:54:26.957Z,100867.25
2023-02-01T02:57:17.640Z,100873.91
2023-02-01T03:00:08.896Z,100875.19
2023-02-01T03:02:58.727Z,100874.06
2023-02-01T03:05:37.173Z,100876.00
2023-02-01T03:08:19.576Z,100859.38
2023-02-01T03:10:59.583Z,100869.38
2023-02-01T03:13:55.483Z,100875.56
2023-02-01T03:16:34.551Z,100865.38
2023-02-01T03:19:15.793Z,100886.81
2023-02-01T03:22:11.854Z,100870.00
2023-02-01T03:24:45.556Z,100887.41
2023-02-01T03:27:21.412Z,100896.34
2023-02-01T03:30:12.087Z,100900.56
2023-02-01T03:33:04.761Z,100890.75
2023-02-01T03:35:47.603Z,100884.81
2023-02-01T03:38:33.950Z,100888.03
2023-02-01T03:41:12.038Z,100884.59
2023-02-01T03:43:49.677Z,100875.72
2023-02-01T03:46:30.221Z,100875.56
2023-02-01T03:49:02.894Z,100869.22
2023-02-01T03:51:34.873Z,100876.50
2023-02-01T03:54:07.108Z,100873.38
2023-02-01T03:56:40.332Z,100869.06
2023-02-01T03:59:12.088Z,100870.56
2023-02-01T04:01:43.131Z,100870.00
2023-02-01T04:04:22.216Z,100871.13
2023-02-01T04:06:57.221Z,100866.75
2023-02-01T04:09:28.715Z,100860.41
2023-02-01T04:11:59.842Z,100857.94
2023-02-01T04:14:30.965Z,100856.16
2023-02-01T04:17:02.124Z,100854.78
2023-02-01T04:19:33.662Z,100847.06
2023-02-01T04:22:05.087Z,100856.44
2023-02-01T04:24:36.296Z,100849.59
2023-02-01T04:27:08.399Z,100846.31
2023-02-01T04:29:40.276Z,100857.91
2023-02-01T04:32:11.767Z,100869.69
2023-02-01T04:34:42.801Z,100862.38
2023-02-01T04:37:13.902Z,100866.47
2023-02-01T04:39:44.804Z,100854.66
2023-02-01T04:42:16.075Z,100841.66
2023-02-01T04:44:46.524Z,100850.06
2023-02-01T04:47:18.223Z,100841.66
2023-02-01T04:49:49.617Z,100843.84
2023-02-01T04:52:20.657Z,100840.00
2023-02-01T04:54:52.129Z,100835.31
2023-02-01T04:57:23.443Z,100844.31
2023-02-01T04:59:53.946Z,100844.16
2023-02-01T05:02:25.185Z,100843.38
2023-02-01T05:04:58.290Z,100839.53
2023-02-01T05:07:29.454Z,100835.69
2023-02-01T05:10:00.868Z,100847.69
2023-02-01T05:12:51.569Z,100839.78
2023-02-01T05:15:22.957Z,100843.00
2023-02-01T05:17:54.043Z,100841.25
2023-02-01T05:20:25.361Z,100857.47
2023-02-01T05:22:56.402Z,100856.91
2023-02-01T05:25:27.498Z,100854.00
2023-02-01T05:27:59.083Z,100848.22
2023-02-01T05:30:30.376Z,100856.25
2023-02-01T05:33:00.972Z,100859.75
2023-02-01T05:35:32.197Z,100857.84
2023-02-01T05:38:03.117Z,100860.16
2023-02-01T05:40:33.981Z,100863.34
2023-02-01T05:43:05.089Z,100879.34
2023-02-01T05:45:36.616Z,100879.22
2023-02-01T05:48:08.380Z,100868.69
2023-02-01T05:50:39.843Z,100864.59
2023-02-01T05:53:13.078Z,100877.78
2023-02-01T05:55:45.379Z,100880.50
2023-02-01T05:58:16.693Z,100876.47
2023-02-01T06:00:47.648Z,100885.63
2023-02-01T06:03:18.590Z,100876.22
2023-02-01T06:05:49.903Z,100888.28
2023-02-01T06:08:21.223Z,100887.25
2023-02-01T06:10:52.425Z,100893.69
2023-02-01T06:13:24.132Z,100890.97
2023-02-01T06:15:58.299Z,100890.19
2023-02-01T06:18:29.472Z,100890.41
2023-02-01T06:21:03.171Z,100900.25
2023-02-01T06:23:34.626Z,100909.94
2023-02-01T06:26:10.571Z,100898.00
2023-02-01T06:28:42.025Z,100910.69
2023-02-01T06:31:13.451Z,100911.16
2023-02-01T06:33:44.762Z,100918.84
2023-02-01T06:36:18.293Z,100923.53
2023-02-01T06:38:49.307Z,100926.78
2023-02-01T06:41:23.009Z,100940.72
2023-02-01T06:43:54.471Z,100948.31
2023-02-01T06:46:25.520Z,100940.03
2023-02-01T06:48:58.143Z,100949.97
2023-02-01T06:51:31.701Z,100959.06
2023-02-01T06:54:03.164Z,100953.72
2023-02-01T06:56:34.906Z,100964.09
2023-02-01T06:59:11.292Z,100976.91
2023-02-01T07:01:42.881Z,100993.22
2023-02-01T07:04:14.305Z,101003.41
2023-02-01T07:06:45.540Z,100978.97
2023-02-01T07:09:16.947Z,101002.56
2023-02-01T07:11:47.514Z,100998.53
2023-02-01T07:14:18.866Z,101000.44
2023-02-01T07:16:50.328Z,101017.66
2023-02-01T07:21:52.455Z,101015.28
2023-02-01T07:24:23.703Z,101021.75
2023-02-01T07:26:54.522Z,101025.97
2023-02-01T07:29:25.738Z,101027.94
2023-02-01T07:31:56.935Z,101022.19
2023-02-01T07:34:28.013Z,101038.31
2023-02-01T07:36:58.975Z,101047.69
2023-02-01T07:39:30.855Z,101046.25
2023-02-01T07:42:05.756Z,101050.25
2023-02-01T07:44:36.431Z,101057.06
2023-02-01T07:47:07.575Z,101063.22
2023-02-01T07:49:39.416Z,101062.59
2023-02-01T07:52:10.724Z,101070.81
2023-02-01T07:54:41.688Z,101070.56
2023-02-01T07:57:14.269Z,101087.50
2023-02-01T08:00:05.668Z,101096.72
2023-02-01T08:02:43.001Z,101098.31
2023-02-01T08:05:13.809Z,101098.97
2023-02-01T08:07:44.990Z,101104.69
2023-02-01T08:10:16.255Z,101109.50
2023-02-01T08:12:50.473Z,101102.81
2023-02-01T08:15:22.051Z,101115.50
2023-02-01T08:17:54.446Z,101122.13
2023-02-01T08:20:26.338Z,101122.31
2023-02-01T08:22:58.316Z,101115.03
2023-02-01T08:25:30.123Z,101132.41
2023-02-01T08:28:00.505Z,101139.31
2023-02-01T08:30:31.736Z,101141.06
2023-02-01T08:33:03.536Z,101150.31
2023-02-01T08:35:43.292Z,101135.19
2023-02-01T08:38:15.148Z,101148.31
2023-02-01T08:40:46.408Z,101152.34
2023-02-01T08:43:17.374Z,101149.81
2023-02-01T08:45:48.787Z,101158.53
2023-02-01T08:48:20.106Z,101173.81
2023-02-01T08:50:51.718Z,101179.88
2023-02-01T08:53:23.149Z,101182.13
2023-02-01T08:55:54.246Z,101185.97
2023-02-01T08:58:25.486Z,101195.63
2023-02-01T09:00:56.259Z,101197.22
2023-02-01T09:03:27.768Z,101196.03
2023-02-01T09:06:07.344Z,101195.19
2023-02-01T09:08:39.452Z,101193.69
2023-02-01T09:11:15.525Z,101197.22
2023-02-01T09:13:47.152Z,101202.19
2023-02-01T09:16:18.914Z,101193.13
2023-02-01T09:18:56.658Z,101208.66
2023-02-01T09:21:39.319Z,101196.47
2023-02-01T09:24:11.652Z,101213.09
2023-02-01T09:26:43.084Z,101211.81
2023-02-01T09:29:14.393Z,101218.97
2023-02-01T09:31:57.430Z,101220.16
2023-02-01T09:34:33.550Z,101230.97
2023-02-01T09:37:04.789Z,101233.22
2023-02-01T09:39:36.118Z,101222.13
2023-02-01T09:42:44.047Z,101229.28
2023-02-01T09:45:30.890Z,101227.25
2023-02-01T09:48:07.885Z,101223.97
2023-02-01T09:50:41.953Z,101229.91
2023-02-01T09:53:53.162Z,101222.81
2023-02-01T09:57:13.154Z,101233.53
2023-02-01T09:59:51.583Z,101240.56
2023-02-01T10:02:29.213Z,101240.63
2023-02-01T10:05:04.735Z,101236.34
2023-02-01T10:08:01.922Z,101232.34
2023-02-01T10:10:50.850Z,101229.97
2023-02-01T10:13:39.051Z,101240.78
2023-02-01T10:16:17.642Z,101248.97
2023-02-01T10:19:11.053Z,101249.53
2023-02-01T10:22:02.188Z,101255.63
2023-02-01T10:24:51.691Z,101251.50
2023-02-01T10:27:23.748Z,101252.31
2023-02-01T10:30:09.852Z,101251.50
2023-02-01T10:32:43.588Z,101254.84
2023-02-01T10:35:38.923Z,101251.03
2023-02-01T10:38:28.969Z,101251.03
2023-02-01T10:41:23.950Z,101252.41
2023-02-01T10:43:58.328Z,101249.16
2023-02-01T10:46:29.728Z,101232.06
2023-02-01T10:49:04.035Z,101245.38
2023-02-01T10:51:44.234Z,101242.34
2023-02-01T10:54:35.228Z,101241.09
2023-02-01T10:57:06.421Z,101250.69
2023-02-01T10:59:38.852Z,101249.06
2023-02-01T11:02:30.348Z,101245.00
2023-02-01T11:05:14.590Z,101240.03
2023-02-01T11:07:51.813Z,101248.94
2023-02-01T11:10:44.000Z,101253.63
2023-02-01T11:13:20.555Z,101236.03
2023-02-01T11:15:59.129Z,101257.81
2023-02-01T11:18:32.691Z,101251.75
2023-02-01T11:21:03.986Z,101255.06
2023-02-01T11:23:36.051Z,101259.44
2023-02-01T11:26:27.953Z,101254.03
2023-02-01T11:29:06.562Z,101262.63
2023-02-01T11:31:38.519Z,101264.25
2023-02-01T11:34:23.780Z,101246.28
2023-02-01T11:37:03.217Z,101261.81
2023-02-01T11:39:38.238Z,101257.91
2023-02-01T11:42:19.602Z,101256.81
2023-02-01T11:44:51.670Z,101256.28
2023-02-01T11:47:23.975Z,101261.19
2023-02-01T11:49:57.855Z,101246.28
2023-02-01T11:52:47.128Z,101265.66
2023-02-01T11:55:42.953Z,101259.66
2023-02-01T11:58:23.092Z,101253.59
2023-02-01T12:01:07.587Z,101264.59
2023-02-01T12:04:14.741Z,101259.38
2023-02-01T12:06:55.673Z,101254.31
2023-02-01T12:09:56.263Z,101255.69
2023-02-01T12:12:54.893Z,101257.13
2023-02-01T12:15:36.850Z,101250.31
2023-02-01T12:18:30.818Z,101254.75
2023-02-01T12:21:08.335Z,101257.22
2023-02-01T12:24:02.423Z,101251.19
2023-02-01T12:26:45.865Z,101254.84
2023-02-01T12:29:17.004Z,101256.59
2023-02-01T12:31:53.991Z,101253.56
2023-02-01T12:34:49.647Z,101246.75
2023-02-01T12:37:47.817Z,101256.88
2023-02-01T12:40:34.078Z,101254.72
2023-02-01T12:43:27.819Z,101254.41
2023-02-01T12:46:31.276Z,101246.44
2023-02-01T12:49:20.993Z,101250.00
2023-02-01T12:51:53.766Z,101255.19
2023-02-01T12:54:28.392Z,101247.00
2023-02-01T12:57:20.719Z,101244.00
2023-02-01T12:59:58.118Z,101246.53
2023-02-01T13:02:40.348Z,101243.41
2023-02-01T13:05:24.229Z,101229.53
2023-02-01T13:08:10.315Z,101239.84
2023-02-01T13:10:43.952Z,101241.50
2023-02-01T13:13:14.888Z,101246.66
2023-02-01T13:16:16.356Z,101239.38
2023-02-01T13:18:52.179Z,101235.00
2023-02-01T13:21:32.518Z,101235.28
2023-02-01T13:24:03.864Z,101231.84
2023-02-01T13:26:35.480Z,101235.34
2023-02-01T13:29:09.564Z,101245.13
2023-02-01T13:32:06.561Z,101248.66
2023-02-01T13:34:56.572Z,101244.31
2023-02-01T13:37:48.026Z,101242.06
2023-02-01T13:40:29.351Z,101237.50
2023-02-01T13:43:26.079Z,101220.34
2023-02-01T13:46:04.947Z,101230.06
2023-02-01T13:48:38.830Z,101231.75
2023-02-01T13:51:11.975Z,101222.50
2023-02-01T13:53:49.968Z,101236.66
2023-02-01T13:56:23.353Z,101227.69
2023-02-01T13:58:55.397Z,101223.59
2023-02-01T14:01:26.385Z,101232.41
2023-02-01T14:04:02.100Z,101238.16
2023-02-01T14:06:34.674Z,101234.56
2023-02-01T14:09:14.449Z,101227.28
2023-02-01T14:11:49.357Z,101234.13
2023-02-01T14:14:20.774Z,101225.41
2023-02-01T14:16:58.403Z,101224.53
2023-02-01T14:19:31.590Z,101218.00
2023-02-01T14:22:28.455Z,101223.81
2023-02-01T14:25:00.775Z,101214.06
2023-02-01T14:27:38.796Z,101209.47
2023-02-01T14:30:16.739Z,101217.66
2023-02-01T14:32:49.436Z,101221.78
2023-02-01T14:35:30.472Z,101226.47
2023-02-01T14:38:06.583Z,101225.94
2023-02-01T14:40:38.300Z,101229.25
2023-02-01T14:43:31.980Z,101227.13
2023-02-01T14:46:03.007Z,101216.81
2023-02-01T14:48:34.653Z,101218.97
2023-02-01T14:51:06.387Z,101222.56
2023-02-01T14:53:38.465Z,101219.28
2023-02-01T14:56:15.704Z,101223.06
2023-02-01T14:59:01.095Z,101212.19
2023-02-01T15:01:35.160Z,101214.91
2023-02-01T15:04:24.348Z,101196.19
2023-02-01T15:07:10.283Z,101199.13
2023-02-01T15:09:46.735Z,101214.41
2023-02-01T15:12:34.166Z,101222.31
2023-02-01T15:15:25.604Z,101213.28
2023-02-01T15:18:05.488Z,101217.41
2023-02-01T15:20:36.852Z,101210.91
2023-02-01T15:23:20.072Z,101221.25
2023-02-01T15:25:53.678Z,101222.66
2023-02-01T15:28:25.605Z,101228.34
2023-02-01T15:31:04.272Z,101221.00
2023-02-01T15:33:37.420Z,101219.91
2023-02-01T15:36:15.228Z,101224.06
2023-02-01T15:38:47.735Z,101226.81
2023-02-01T15:41:25.535Z,101218.38
2023-02-01T15:44:03.829Z,101208.84
2023-02-01T15:46:47.818Z,101208.00
2023-02-01T15:49:40.029Z,101208.25
2023-02-01T15:52:36.244Z,101204.16
2023-02-01T15:55:21.481Z,101209.31
2023-02-01T15:57:53.455Z,101215.31
2023-02-01T16:00:32.023Z,101208.50
2023-02-01T16:03:08.901Z,101195.72
2023-02-01T16:05:42.633Z,101219.13
2023-02-01T16:08:18.621Z,101217.44
2023-02-01T16:10:56.390Z,101213.69
2023-02-01T16:13:27.254Z,101215.03
2023-02-01T16:15:58.405Z,101227.56
2023-02-01T16:18:29.668Z,101206.88
2023-02-01T16:21:00.903Z,101223.75
2023-02-01T16:23:32.601Z,101229.78
2023-02-01T16:26:03.958Z,101228.41
2023-02-01T16:28:35.956Z,101241.22
2023-02-01T16:31:07.228Z,101232.50
2023-02-01T16:33:38.502Z,101235.78
2023-02-01T16:36:10.995Z,101243.44
2023-02-01T16:38:42.429Z,101238.56
2023-02-01T16:41:17.587Z,101236.94
2023-02-01T16:43:49.104Z,101232.00
2023-02-01T16:46:24.789Z,101241.28
2023-02-01T16:48:58.701Z,101218.97
2023-02-01T16:51:34.997Z,101229.34
2023-02-01T16:54:06.925Z,101233.69
2023-02-01T16:56:38.344Z,101232.59
2023-02-01T16:59:10.931Z,101234.28
2023-02-01T17:01:44.298Z,101231.81
2023-02-01T17:04:16.239Z,101224.75
2023-02-01T17:06:49.696Z,101241.66
2023-02-01T17:09:23.242Z,101245.72
2023-02-01T17:11:54.659Z,101237.00
2023-02-01T17:14:27.095Z,101220.66
2023-02-01T17:16:58.926Z,101218.19
2023-02-01T17:19:29.976Z,101216.03
2023-02-01T17:22:01.221Z,101219.56
2023-02-01T17:24:46.796Z,101210.34
2023-02-01T17:27:20.197Z,101231.81
2023-02-01T17:29:51.138Z,101221.22
2023-02-01T17:32:26.442Z,101239.47
2023-02-01T17:34:59.810Z,101240.81
2023-02-01T17:37:33.301Z,101250.63
2023-02-01T17:40:05.257Z,101248.47
2023-02-01T17:42:38.931Z,101240.03
2023-02-01T17:45:41.905Z,101264.81
2023-02-01T17:48:13.161Z,101263.97
2023-02-01T17:50:44.425Z,101268.06
2023-02-01T17:53:16.521Z,101258.00
2023-02-01T17:55:48.211Z,101262.88
2023-02-01T17:58:20.199Z,101269.97
2023-02-01T18:00:51.090Z,101277.84
2023-02-01T18:03:29.961Z,101271.28
2023-02-01T18:06:02.913Z,101265.81
2023-02-01T18:08:37.112Z,101257.09
2023-02-01T18:11:15.941Z,101266.06
2023-02-01T18:13:47.200Z,101270.16
2023-02-01T18:16:34.520Z,101265.81
2023-02-01T18:19:06.535Z,101257.63
2023-02-01T18:21:44.149Z,101266.88
2023-02-01T18:24:17.768Z,101263.34
2023-02-01T18:26:49.086Z,101263.31
2023-02-01T18:29:20.540Z,101272.53
2023-02-01T18:31:52.382Z,101277.13
2023-02-01T18:34:25.265Z,101275.19
2023-02-01T18:36:56.504Z,101274.13
2023-02-01T18:39:27.559Z,101274.13
2023-02-01T18:41:58.745Z,101271.94
2023-02-01T18:44:29.658Z,101264.84
2023-02-01T18:47:02.070Z,101284.72
2023-02-01T18:49:33.320Z,101292.38
2023-02-01T18:52:04.231Z,101273.28
2023-02-01T18:54:36.017Z,101290.91
2023-02-01T18:57:08.189Z,101303.72
2023-02-01T18:59:39.290Z,101290.06
2023-02-01T19:02:13.683Z,101292.25
2023-02-01T19:04:44.856Z,101297.66
2023-02-01T19:07:17.216Z,101299.56
2023-02-01T19:09:48.456Z,101292.75
2023-02-01T19:12:20.225Z,101306.06
2023-02-01T19:14:50.724Z,101295.34
2023-02-01T19:17:21.870Z,101298.78
2023-02-01T19:19:53.012Z,101296.75
2023-02-01T19:22:24.086Z,101285.06
2023-02-01T19:24:55.203Z,101286.81
2023-02-01T19:27:26.184Z,101283.72
2023-02-01T19:29:57.391Z,101290.41
2023-02-01T19:32:31.645Z,101282.66
2023-02-01T19:35:02.692Z,101287.97
2023-02-01T19:37:34.425Z,101281.41
2023-02-01T19:40:05.924Z,101272.88
2023-02-01T19:42:36.860Z,101275.31
2023-02-01T19:45:09.104Z,101272.78
2023-02-01T19:47:40.853Z,101254.19
2023-02-01T19:50:12.609Z,101265.72
2023-02-01T19:52:43.533Z,101271.38
2023-02-01T19:55:15.810Z,101278.03
2023-02-01T19:57:47.311Z,101277.09
2023-02-01T20:00:17.971Z,101271.72
2023-02-01T20:02:49.802Z,101282.56
2023-02-01T20:05:21.384Z,101282.97
2023-02-01T20:07:53.385Z,101265.84
2023-02-01T20:10:24.560Z,101277.06
2023-02-01T20:12:55.591Z,101279.56
2023-02-01T20:15:28.423Z,101280.88
2023-02-01T20:17:59.639Z,101282.88
2023-02-01T20:20:31.261Z,101278.91
2023-02-01T20:23:03.743Z,101270.72
2023-02-01T20:25:35.512Z,101273.41
2023-02-01T20:28:06.515Z,101276.44
2023-02-01T20:30:37.685Z,101281.69
2023-02-01T20:33:08.475Z,101273.38
2023-02-01T20:35:39.330Z,101278.16
2023-02-01T20:38:10.408Z,101267.25
2023-02-01T20:40:41.783Z,101269.47
2023-02-01T20:43:12.978Z,101271.06
2023-02-01T20:45:44.530Z,101258.72
2023-02-01T20:48:16.037Z,101273.72
2023-02-01T20:50:47.587Z,101261.75
2023-02-01T20:53:26.592Z,101273.59
2023-02-01T20:55:59.971Z,101271.53
2023-02-01T20:58:32.480Z,101270.28
2023-02-01T21:01:03.604Z,101261.81
2023-02-01T21:03:34.965Z,101277.25
2023-02-01T21:06:06.606Z,101266.22
2023-02-01T21:08:38.336Z,101265.09
2023-02-01T21:11:12.620Z,101254.09
2023-02-01T21:13:51.823Z,101260.25
2023-02-01T21:16:24.109Z,101257.03
2023-02-01T21:18:55.647Z,101238.38
2023-02-01T21:21:26.614Z,101257.22
2023-02-01T21:24:01.469Z,101251.09
2023-02-01T21:26:45.275Z,101258.22
2023-02-01T21:29:17.971Z,101245.78
2023-02-01T21:31:48.988Z,101261.09
2023-02-01T21:34:20.023Z,101253.53
2023-02-01T21:36:51.458Z,101252.53
2023-02-01T21:39:22.540Z,101259.09
2023-02-01T21:42:12.189Z,101251.34
2023-02-01T21:44:44.200Z,101231.66
2023-02-01T21:47:14.479Z,101256.09
2023-02-01T21:49:46.315Z,101245.09
2023-02-01T21:52:19.114Z,101239.38
2023-02-01T21:54:52.531Z,101238.09
2023-02-01T21:57:23.767Z,101223.50
2023-02-01T21:59:54.788Z,101233.13
2023-02-01T22:02:25.852Z,101231.63
2023-02-01T22:04:56.877Z,101243.44
2023-02-01T22:07:28.041Z,101237.44
2023-02-01T22:10:01.235Z,101224.81
2023-02-01T22:12:33.614Z,101238.59
2023-02-01T22:15:05.782Z,101243.78
2023-02-01T22:17:38.087Z,101237.78
2023-02-01T22:20:10.047Z,101230.56
2023-02-01T22:22:41.324Z,101247.03
2023-02-01T22:25:12.497Z,101251.56
2023-02-01T22:28:32.644Z,101235.19
2023-02-01T22:30:34.946Z,101232.34
2023-02-01T22:33:05.519Z,101219.19
2023-02-01T22:35:38.399Z,101210.97
2023-02-01T22:38:09.386Z,101205.09
2023-02-01T22:40:40.158Z,101208.31
2023-02-01T22:43:11.311Z,101205.59
2023-02-01T22:45:42.046Z,101211.16
2023-02-01T22:48:13.076Z,101199.56
2023-02-01T22:50:44.713Z,101194.09
2023-02-01T22:53:15.822Z,101179.66
2023-02-01T22:55:47.299Z,101191.25
2023-02-01T22:58:18.315Z,101193.06
2023-02-01T23:00:49.797Z,101172.28
2023-02-01T23:03:21.532Z,101186.59
2023-02-01T23:05:52.683Z,101180.81
2023-02-01T23:08:23.812Z,101169.38
2023-02-01T23:11:03.915Z,101169.38
2023-02-01T23:13:36.223Z,101177.84
2023-02-01T23:16:13.984Z,101164.50
2023-02-01T23:18:45.315Z,101169.59
2023-02-01T23:21:20.868Z,101170.19
2023-02-01T23:24:00.269Z,101169.53
2023-02-01T23:26:32.800Z,101159.34
2023-02-01T23:29:04.058Z,101164.63
2023-02-01T23:31:36.722Z,101166.41
2023-02-01T23:34:08.244Z,101173.31
2023-02-01T23:36:39.420Z,101155.28
2023-02-01T23:39:10.620Z,101149.63
2023-02-01T23:41:41.784Z,101153.88
2023-02-01T23:44:13.130Z,101122.63
2023-02-01T23:46:48.621Z,101140.28
2023-02-01T23:49:20.200Z,101133.88
2023-02-01T23:51:54.541Z,101118.25
2023-02-01T23:54:26.145Z,101123.84
2023-02-01T23:56:58.747Z,101114.63
2023-02-01T23:59:32.007Z,101117.56
